Time;durP1;ratioP1;P1;durP2;ratioP2;P2;SDS_P1;SDS_P2;PMS_P1;PMS_P2;Temp;Humidity;BMP_temperature;BMP_pressure;BME280_temperature;BME280_humidity;BME280_pressure;Samples;Min_cycle;Max_cycle;Signal;HPM_P1;HPM_P2
2022/09/25 00:00:46;;;;;;;7.13;2.88;;;;;;;-143.48;83.29;79249.78;5055459;28;20078;-76
2022/09/25 00:03:13;;;;;;;7.40;2.78;;;;;;;-143.48;83.11;79245.81;5073693;28;20024;-76
2022/09/25 00:05:40;;;;;;;9.15;2.92;;;;;;;-143.48;83.13;79245.81;5073695;28;20029;-75
2022/09/25 00:08:07;;;;;;;8.23;2.80;;;;;;;-143.48;82.97;79259.69;5055491;28;20028;-77
2022/09/25 00:10:33;;;;;;;5.72;2.70;;;;;;;-143.48;82.72;79259.69;5055680;28;20068;-77
2022/09/25 00:12:58;;;;;;;8.20;2.80;;;;;;;-143.48;82.15;79271.59;5055269;28;20024;-76
2022/09/25 00:15:24;;;;;;;4.30;2.15;;;;;;;-143.48;82.02;79281.50;5073952;28;20017;-77
2022/09/25 00:17:49;;;;;;;6.05;2.50;;;;;;;-143.48;82.10;79309.28;5058852;28;20024;-76
2022/09/25 00:20:16;;;;;;;6.32;2.63;;;;;;;-143.48;82.94;79293.41;5076279;28;20056;-77
2022/09/25 00:22:42;;;;;;;7.15;2.60;;;;;;;-143.48;83.02;79275.56;5076850;28;20075;-76
2022/09/25 00:25:13;;;;;;;5.10;2.20;;;;;;;-143.48;82.89;79263.66;5076569;28;20056;-77
2022/09/25 00:27:39;;;;;;;6.22;2.50;;;;;;;-143.48;83.14;79279.53;5058796;28;20111;-76
2022/09/25 00:30:05;;;;;;;9.43;2.80;;;;;;;-143.48;83.18;79269.63;5077134;28;20101;-77
2022/09/25 00:32:30;;;;;;;5.03;2.58;;;;;;;-143.48;82.92;79269.63;5076484;28;20025;-77
2022/09/25 00:34:56;;;;;;;7.00;2.30;;;;;;;-143.48;82.54;79277.53;5076704;28;20073;-76
2022/09/25 00:37:21;;;;;;;4.82;2.30;;;;;;;-143.48;83.01;79281.50;5075761;28;20384;-76
2022/09/25 00:39:47;;;;;;;5.78;2.28;;;;;;;-143.48;83.17;79285.47;5075422;28;20024;-76
2022/09/25 00:42:13;;;;;;;6.13;2.10;;;;;;;-143.48;82.97;79285.47;5076756;28;20472;-77
2022/09/25 00:44:56;;;;;;;8.90;2.38;;;;;;;-143.48;82.88;79299.38;5076247;28;20468;-78
2022/09/25 00:47:45;;;;;;;6.43;2.15;;;;;;;-143.48;83.11;79283.50;5058379;28;20404;-76
2022/09/25 00:50:39;;;;;;;5.85;2.35;;;;;;;-143.48;83.02;79281.50;5050557;28;20110;-76
2022/09/25 00:53:13;;;;;;;8.00;2.20;;;;;;;-143.48;83.03;79279.53;5051367;28;20050;-76
2022/09/25 00:55:42;;;;;;;3.53;2.13;;;;;;;-143.48;83.20;79277.53;5076620;28;20020;-76
2022/09/25 00:58:08;;;;;;;5.50;2.28;;;;;;;-143.48;82.88;79291.44;5076144;28;20399;-77
2022/09/25 01:00:34;;;;;;;10.00;2.40;;;;;;;-143.48;82.91;79287.47;5041351;28;20043;-78
2022/09/25 01:03:00;;;;;;;6.15;2.08;;;;;;;-143.48;82.36;79307.31;5076221;28;20028;-76
2022/09/25 01:05:35;;;;;;;5.93;2.00;;;;;;;-143.48;82.28;79325.16;5076208;28;20028;-76
2022/09/25 01:08:04;;;;;;;6.03;1.98;;;;;;;-143.48;82.46;79327.13;5076138;28;20031;-76
2022/09/25 01:10:31;;;;;;;5.80;2.30;;;;;;;-143.48;82.56;79345.00;5057799;28;20028;-76
2022/09/25 01:12:59;;;;;;;4.88;2.25;;;;;;;-143.48;82.88;79345.00;5075880;28;20459;-78
2022/09/25 01:15:52;;;;;;;7.43;2.05;;;;;;;-143.48;83.31;79339.03;5057812;28;20047;-78
2022/09/25 01:18:34;;;;;;;;;;;;;;;-143.48;82.69;79337.06;5058422;28;20199;-77
2022/09/25 01:21:13;;;;;;;6.05;2.08;;;;;;;-143.48;82.65;79323.16;5075731;28;19957;-77
2022/09/25 01:23:50;;;;;;;4.85;2.10;;;;;;;-143.48;82.57;79329.13;5057877;28;20028;-76
2022/09/25 01:26:42;;;;;;;5.80;2.20;;;;;;;-143.48;82.47;79356.91;5075120;28;20488;-76
2022/09/25 01:29:26;;;;;;;4.20;2.10;;;;;;;-143.48;82.46;79362.84;5075263;28;20430;-76
2022/09/25 01:32:12;;;;;;;7.30;2.20;;;;;;;-143.48;83.01;79346.97;5057531;28;20024;-77
2022/09/25 01:35:09;;;;;;;4.53;2.00;;;;;;;-143.48;82.68;79327.13;5057637;28;20480;-77
2022/09/25 01:37:58;;;;;;;5.10;2.08;;;;;;;-143.48;83.30;79313.25;5075501;28;20496;-77
2022/09/25 01:40:32;;;;;;;5.97;2.30;;;;;;;-143.48;83.15;79319.22;5075857;28;20029;-77
2022/09/25 01:43:13;;;;;;;5.65;2.42;;;;;;;-143.48;83.40;79309.28;5075076;28;20116;-77
2022/09/25 01:45:56;;;;;;;7.22;2.20;;;;;;;-143.48;82.80;79335.06;5075332;28;20115;-77
2022/09/25 01:48:31;;;;;;;5.38;2.35;;;;;;;-143.48;83.29;79337.06;5075074;28;20120;-76
2022/09/25 01:51:46;;;;;;;7.28;2.38;;;;;;;-143.48;83.88;79301.34;5057622;28;20115;-76
2022/09/25 01:54:17;;;;;;;6.95;2.58;;;;;;;-143.48;83.71;79285.47;5057461;28;20036;-76
2022/09/25 01:56:54;;;;;;;6.80;2.38;;;;;;;-143.48;82.55;79309.28;5057191;28;20023;-76
2022/09/25 01:59:36;;;;;;;5.90;2.50;;;;;;;-143.48;83.57;79313.25;5057103;28;20118;-77
2022/09/25 02:02:05;;;;;;;3.65;2.25;;;;;;;-143.48;83.79;79297.38;5075311;28;20099;-77
2022/09/25 02:04:36;;;;;;;4.00;2.28;;;;;;;-143.48;83.09;79317.22;5057274;28;20438;-78
2022/09/25 02:07:06;;;;;;;7.43;2.53;;;;;;;-143.48;83.23;79331.09;5056882;28;20036;-77
2022/09/25 02:09:35;;;;;;;8.88;2.55;;;;;;;-143.48;84.13;79339.03;5056643;28;20025;-77
2022/09/25 02:12:09;;;;;;;7.97;2.13;;;;;;;-143.48;83.77;79345.00;5057010;28;20024;-77
2022/09/25 02:14:45;;;;;;;3.88;2.03;;;;;;;-143.48;83.71;79358.88;5074844;28;20032;-77
2022/09/25 02:20:30;;;;;;;4.57;2.45;;;;;;;-143.48;83.51;79362.84;5074722;28;20114;-77
2022/09/25 02:22:50;;;;;;;5.53;2.30;;;;;;;-143.48;83.79;79376.72;5074702;28;20044;-77
2022/09/25 02:25:24;;;;;;;7.70;2.72;;;;;;;-143.48;83.72;79372.75;5056652;28;20036;-77
2022/09/25 02:27:49;;;;;;;9.40;2.50;;;;;;;-143.48;84.15;79354.91;5074691;28;20052;-77
2022/09/25 02:30:16;;;;;;;11.02;2.45;;;;;;;-143.48;84.15;79345.00;5056333;28;20078;-77
2022/09/25 02:32:41;;;;;;;4.13;2.25;;;;;;;-143.48;83.30;79356.91;5056437;28;20028;-77
2022/09/25 02:35:08;;;;;;;5.70;2.30;;;;;;;-143.48;83.35;79356.91;5074574;28;20028;-77
2022/09/25 02:37:33;;;;;;;6.50;2.70;;;;;;;-143.48;83.69;79348.97;5056360;28;20052;-76
2022/09/25 02:40:00;;;;;;;6.15;2.30;;;;;;;-143.48;83.86;79341.03;5055971;28;20031;-78
2022/09/25 02:42:49;;;;;;;4.18;2.25;;;;;;;-143.48;83.67;79360.88;5039637;28;20035;-77
2022/09/25 02:45:43;;;;;;;11.68;2.50;;;;;;;-143.48;83.65;79356.91;5074163;28;20468;-77
2022/09/25 02:48:40;;;;;;;5.43;2.30;;;;;;;-143.48;83.69;79346.97;5052323;28;20500;-78
2022/09/25 02:51:14;;;;;;;6.68;2.20;;;;;;;-143.48;83.74;79370.78;5054175;28;20024;-77
2022/09/25 02:53:48;;;;;;;5.55;2.15;;;;;;;-143.48;84.35;79368.78;5053053;28;20366;-78
2022/09/25 02:56:19;;;;;;;7.72;2.35;;;;;;;-143.48;84.06;79376.72;5053968;28;20028;-78
2022/09/25 02:58:49;;;;;;;5.85;2.28;;;;;;;-143.48;84.13;79378.72;5052614;28;20436;-78
2022/09/25 03:01:18;;;;;;;4.57;2.42;;;;;;;-143.48;84.02;79392.59;5053040;28;20519;-78
2022/09/25 03:03:45;;;;;;;4.30;2.40;;;;;;;-143.48;84.11;79394.59;5054183;28;20032;-78
2022/09/25 03:06:11;;;;;;;5.85;2.33;;;;;;;-143.48;83.65;79398.56;5054055;28;20090;-78
2022/09/25 03:08:44;;;;;;;5.07;2.38;;;;;;;-143.48;84.12;79408.47;5054039;28;20025;-77
2022/09/25 03:11:12;;;;;;;9.48;2.40;;;;;;;-143.48;83.71;79394.59;5052673;28;20111;-78
2022/09/25 03:13:38;;;;;;;7.85;2.15;;;;;;;-143.48;83.91;79378.72;5053664;28;20434;-78
2022/09/25 03:16:20;;;;;;;4.88;2.05;;;;;;;-143.48;83.48;79380.69;5054608;28;20457;-77
2022/09/25 03:18:46;;;;;;;5.28;2.17;;;;;;;-143.48;83.07;79382.69;5054206;28;20550;-78
2022/09/25 03:21:12;;;;;;;7.88;2.08;;;;;;;-143.48;82.32;79406.50;5052799;28;20053;-77
2022/09/25 03:23:40;;;;;;;7.43;2.30;;;;;;;-143.48;83.22;79412.44;5053026;28;20495;-78
2022/09/25 03:26:06;;;;;;;3.55;2.15;;;;;;;-143.48;83.06;79418.38;5053573;28;20399;-77
2022/09/25 03:28:32;;;;;;;4.72;2.17;;;;;;;-143.48;83.09;79420.38;5052333;28;20104;-78
2022/09/25 03:31:06;;;;;;;3.97;2.05;;;;;;;-143.48;83.84;79430.28;5052474;28;20048;-77
2022/09/25 03:33:42;;;;;;;3.65;1.98;;;;;;;-143.48;83.43;79428.31;5052526;28;20119;-78
2022/09/25 03:36:15;;;;;;;4.30;1.90;;;;;;;-143.48;83.73;79434.25;5052757;28;20032;-78
2022/09/25 03:38:42;;;;;;;2.30;1.92;;;;;;;-143.48;83.64;79416.41;5053999;28;20029;-78
2022/09/25 03:41:09;;;;;;;5.78;2.00;;;;;;;-143.48;82.99;79404.50;5053640;28;20021;-77
2022/09/25 03:43:36;;;;;;;11.25;2.00;;;;;;;-143.48;83.42;79390.63;5053755;28;20031;-78
2022/09/25 03:46:02;;;;;;;4.00;2.10;;;;;;;-143.48;83.45;79384.66;5052530;28;20055;-76
2022/09/25 03:48:29;;;;;;;3.08;1.90;;;;;;;-143.48;82.96;79392.59;5051981;28;20533;-76
2022/09/25 03:50:55;;;;;;;6.25;2.13;;;;;;;-143.48;83.91;79380.69;5053890;28;20025;-76
2022/09/25 03:53:21;;;;;;;4.72;2.20;;;;;;;-143.48;82.65;79390.63;5056029;28;20060;-77
2022/09/25 03:55:47;;;;;;;7.70;1.90;;;;;;;-143.48;82.52;79400.53;5056237;28;20021;-77
2022/09/25 03:58:15;;;;;;;7.45;2.38;;;;;;;-143.48;82.89;79400.53;5055874;28;20078;-77
2022/09/25 04:00:41;;;;;;;6.13;2.03;;;;;;;-143.48;82.57;79398.56;5055968;28;20035;-77
2022/09/25 04:03:07;;;;;;;5.13;2.15;;;;;;;-143.48;83.32;79386.66;5055714;28;20025;-77
2022/09/25 04:05:32;;;;;;;5.68;1.90;;;;;;;-143.48;82.88;79382.69;5055541;28;20021;-76
2022/09/25 04:07:59;;;;;;;4.07;2.10;;;;;;;-143.48;82.66;79392.59;5057342;28;20376;-77
2022/09/25 04:10:25;;;;;;;6.32;2.17;;;;;;;-143.48;82.78;79398.56;5055820;28;20036;-76
2022/09/25 04:12:54;;;;;;;4.18;1.77;;;;;;;-143.48;83.21;79386.66;5057312;28;20025;-76
2022/09/25 04:15:23;;;;;;;4.63;2.03;;;;;;;-143.48;82.80;79384.66;5056361;28;20021;-77
2022/09/25 04:17:51;;;;;;;5.55;1.95;;;;;;;-143.48;82.99;79392.59;5057155;28;20029;-77
2022/09/25 04:20:18;;;;;;;5.28;1.95;;;;;;;-143.48;83.51;79362.84;5057717;28;20136;-77
2022/09/25 04:22:44;;;;;;;5.93;2.10;;;;;;;-143.48;82.93;79358.88;5055643;28;20028;-77
2022/09/25 04:25:10;;;;;;;6.47;1.83;;;;;;;-143.48;82.70;79360.88;5057404;28;20376;-77
2022/09/25 04:27:35;;;;;;;7.63;1.90;;;;;;;-143.48;82.34;79376.72;5055569;28;20073;-76
2022/09/25 04:30:05;;;;;;;4.00;1.70;;;;;;;-143.48;82.78;79362.84;5055859;28;20029;-77
2022/09/25 04:35:14;;;;;;;8.98;2.00;;;;;;;-143.48;83.01;79358.88;5057144;28;20140;-77
2022/09/25 04:37:41;;;;;;;6.80;2.00;;;;;;;-143.48;82.74;79386.66;5056681;28;20028;-77
2022/09/25 04:40:07;;;;;;;4.85;1.90;;;;;;;-143.48;82.25;79392.59;5056497;28;20052;-77
2022/09/25 04:42:32;;;;;;;6.30;1.98;;;;;;;-143.48;82.71;79394.59;5055288;28;20453;-77
2022/09/25 04:44:57;;;;;;;6.22;2.00;;;;;;;-143.48;82.85;79408.47;5055460;28;20074;-77
2022/09/25 04:47:28;;;;;;;4.00;1.95;;;;;;;-143.48;83.77;79408.47;5065147;28;20094;-77
2022/09/25 04:49:53;;;;;;;4.88;2.03;;;;;;;-143.48;83.67;79408.47;5076528;28;20040;-77
2022/09/25 04:52:19;;;;;;;5.30;2.08;;;;;;;-143.48;83.48;79420.38;5075998;28;20036;-76
2022/09/25 04:54:45;;;;;;;5.03;2.15;;;;;;;-143.48;83.56;79422.34;5058169;28;20024;-77
2022/09/25 04:57:16;;;;;;;3.05;1.83;;;;;;;-143.48;83.51;79414.44;5058527;28;20400;-77
2022/09/25 04:59:41;;;;;;;2.55;1.75;;;;;;;-143.48;82.42;79432.28;5058201;28;20051;-76
2022/09/25 05:02:07;;;;;;;5.30;2.70;;;;;;;-143.48;82.74;79434.25;5075699;28;20103;-77
2022/09/25 05:04:32;;;;;;;9.60;3.30;;;;;;;-143.48;82.92;79444.19;5057979;28;20476;-77
2022/09/25 05:06:58;;;;;;;6.22;3.42;;;;;;;-143.48;83.32;79444.19;5057901;28;20371;-77
2022/09/25 05:09:23;;;;;;;12.40;3.67;;;;;;;-143.48;82.95;79456.09;5076061;28;20483;-77
2022/09/25 05:11:48;;;;;;;6.78;4.00;;;;;;;-143.48;83.43;79458.06;5058096;28;20024;-77
2022/09/25 05:14:14;;;;;;;8.35;3.88;;;;;;;-143.48;83.54;79464.03;5057814;28;20024;-77
2022/09/25 05:16:39;;;;;;;8.65;3.72;;;;;;;-143.48;83.42;79456.09;5057954;28;20030;-76
2022/09/25 05:19:04;;;;;;;5.22;2.60;;;;;;;-143.48;83.12;79466.00;5058075;28;20111;-76
2022/09/25 05:21:31;;;;;;;3.72;2.50;;;;;;;-143.48;83.09;79464.03;5057633;28;20460;-76
2022/09/25 05:23:57;;;;;;;5.13;2.50;;;;;;;-143.48;83.15;79464.03;5057636;28;20464;-76
2022/09/25 05:26:22;;;;;;;5.55;2.78;;;;;;;-143.48;83.12;79460.06;5075556;28;20032;-77
2022/09/25 05:28:51;;;;;;;7.53;2.50;;;;;;;-143.48;83.44;79456.09;5075609;28;20020;-77
2022/09/25 05:31:16;;;;;;;5.93;3.20;;;;;;;-143.48;83.56;79414.44;5057454;28;20532;-78
2022/09/25 05:33:42;;;;;;;8.93;3.47;;;;;;;-143.48;83.08;79400.53;5082588;28;20055;-77
2022/09/25 05:36:09;;;;;;;6.72;3.38;;;;;;;-143.48;82.61;79418.38;5075773;28;20451;-77
2022/09/25 05:38:36;;;;;;;6.10;3.50;;;;;;;-143.48;82.83;79436.25;5075353;28;20029;-76
2022/09/25 05:41:09;;;;;;;7.13;3.42;;;;;;;-143.48;82.35;79456.09;5075309;28;20055;-77
2022/09/25 05:43:39;;;;;;;7.90;3.33;;;;;;;-143.48;82.24;79456.09;5057299;28;20110;-77
2022/09/25 05:46:05;;;;;;;7.63;3.42;;;;;;;-143.48;82.85;79434.25;5057905;28;20392;-76
2022/09/25 05:48:30;;;;;;;8.30;3.50;;;;;;;-143.48;83.09;79396.56;5057170;28;20603;-76
2022/09/25 05:50:57;;;;;;;6.97;3.33;;;;;;;-143.48;82.96;79392.59;5057331;28;20071;-76
2022/09/25 05:53:23;;;;;;;4.93;3.00;;;;;;;-143.48;82.49;79392.59;5078153;28;20088;-77
2022/09/25 05:56:01;;;;;;;4.75;2.53;;;;;;;-143.48;81.58;79406.50;5075597;28;20024;-77
2022/09/25 05:58:28;;;;;;;6.18;2.78;;;;;;;-143.48;82.03;79398.56;5073458;28;20368;-77
2022/09/25 06:00:54;;;;;;;8.93;3.10;;;;;;;-143.48;82.38;79394.59;5095593;28;20008;-78
2022/09/25 06:03:21;;;;;;;5.45;2.80;;;;;;;-143.48;81.68;79390.63;5095663;28;20050;-79
2022/09/25 06:05:48;;;;;;;7.18;2.63;;;;;;;-143.48;82.08;79384.66;5080639;28;20012;-77
2022/09/25 06:08:14;;;;;;;5.63;2.92;;;;;;;-143.48;81.82;79404.50;5081149;28;20038;-78
2022/09/25 06:10:40;;;;;;;9.70;2.83;;;;;;;-143.48;82.01;79398.56;5078913;28;20033;-76
2022/09/25 06:13:08;;;;;;;5.78;2.65;;;;;;;-143.48;82.04;79404.50;5093535;28;20020;-80
2022/09/25 06:15:41;;;;;;;4.13;2.50;;;;;;;-143.48;82.13;79386.66;5079038;28;20012;-77
2022/09/25 06:18:08;;;;;;;5.32;2.90;;;;;;;-143.48;81.83;79386.66;5079253;28;20032;-78
2022/09/25 06:20:34;;;;;;;5.03;2.60;;;;;;;-143.48;81.89;79384.66;5063280;28;20036;-77
2022/09/25 06:23:03;;;;;;;8.35;2.45;;;;;;;-143.48;81.85;79382.69;5096775;28;20036;-78
2022/09/25 06:25:31;;;;;;;6.30;2.47;;;;;;;-143.48;82.11;79360.88;5072976;28;20064;-77
2022/09/25 06:27:59;;;;;;;5.22;2.50;;;;;;;-143.48;81.64;79341.03;5088494;28;20029;-77
2022/09/25 06:30:32;;;;;;;5.38;2.42;;;;;;;-143.48;81.44;79331.09;5064720;28;20054;-76
2022/09/25 06:32:59;;;;;;;5.60;2.20;;;;;;;-143.48;81.00;79307.31;5058319;28;20021;-76
2022/09/25 06:35:25;;;;;;;3.50;2.30;;;;;;;-143.48;80.73;79285.47;5056592;28;20028;-77
2022/09/25 06:37:51;;;;;;;4.05;2.10;;;;;;;-143.48;80.56;79279.53;5073918;28;20027;-77
2022/09/25 06:40:16;;;;;;;6.28;2.13;;;;;;;-143.48;80.50;79261.69;5083095;28;20025;-77
2022/09/25 06:42:41;;;;;;;7.25;2.08;;;;;;;-143.48;80.54;79241.84;5066979;28;20020;-76
2022/09/25 06:45:09;;;;;;;6.28;2.35;;;;;;;-143.48;80.33;79229.94;5084650;28;20082;-77
2022/09/25 06:47:35;;;;;;;5.72;2.10;;;;;;;-143.48;80.22;79239.84;5086901;28;20040;-76
2022/09/25 06:50:03;;;;;;;7.40;2.22;;;;;;;-143.48;80.64;79225.97;5083811;28;20028;-77
2022/09/25 06:52:28;;;;;;;5.32;2.20;;;;;;;-143.48;80.68;79212.09;5070825;28;20023;-78
2022/09/25 06:54:54;;;;;;;5.65;2.20;;;;;;;-143.48;81.00;79196.22;5071836;28;20013;-78
2022/09/25 06:57:19;;;;;;;5.30;2.20;;;;;;;-143.48;81.02;79170.44;5063847;28;20016;-76
2022/09/25 06:59:46;;;;;;;7.38;2.22;;;;;;;-143.48;80.34;79152.59;5076071;28;20024;-76
2022/09/25 07:04:55;;;;;;;7.10;2.20;;;;;;;-143.48;79.92;79110.94;5080313;28;20406;-76
2022/09/25 07:07:23;;;;;;;6.15;2.50;;;;;;;-143.48;79.55;79101.00;5063013;28;20072;-77
2022/09/25 07:09:51;;;;;;;5.65;2.40;;;;;;;-143.48;78.88;79089.09;5078088;28;20108;-78
2022/09/25 07:12:17;;;;;;;4.68;2.40;;;;;;;-143.48;78.75;79075.22;5077026;28;20086;-77
2022/09/25 07:14:45;;;;;;;7.10;2.40;;;;;;;-143.48;78.75;79059.34;5072912;28;20027;-75
2022/09/25 07:17:13;;;;;;;5.38;2.15;;;;;;;-143.48;78.40;79037.53;5079183;28;20031;-77
2022/09/25 07:19:39;;;;;;;8.02;2.78;;;;;;;-143.48;78.38;79011.75;5082516;28;20085;-77
2022/09/25 07:22:04;;;;;;;12.88;2.10;;;;;;;-143.48;62.96;78420.69;5088066;28;20029;-77
2022/09/25 07:24:30;;;;;;;4.97;1.85;;;;;;;-143.48;50.51;78035.97;5082309;28;20372;-78
2022/09/25 07:26:55;;;;;;;5.18;1.88;;;;;;;-143.48;45.62;77899.13;5079851;28;20024;-77
2022/09/25 07:29:20;;;;;;;6.45;2.00;;;;;;;-143.48;45.05;77849.56;5060385;28;20109;-77
2022/09/25 07:31:46;;;;;;;3.10;1.60;;;;;;;-143.48;44.45;77843.63;5062002;28;20016;-76
2022/09/25 07:34:11;;;;;;;7.43;2.13;;;;;;;-143.48;44.54;77847.59;5062522;28;20025;-77
2022/09/25 07:36:38;;;;;;;6.68;1.55;;;;;;;-143.48;50.73;78174.78;5065336;28;20020;-78
2022/09/25 07:39:05;;;;;;;6.57;1.30;;;;;;;-143.48;53.90;78232.28;5064160;28;20021;-77
2022/09/25 07:41:30;;;;;;;5.70;1.50;;;;;;;-143.48;52.02;78117.28;5080082;28;20032;-78
2022/09/25 07:43:57;;;;;;;5.85;1.20;;;;;;;-143.48;49.69;78039.94;5062785;28;20084;-78
2022/09/25 07:46:27;;;;;;;5.70;1.50;;;;;;;-143.48;49.93;78055.81;5061311;28;20048;-78
2022/09/25 07:48:52;;;;;;;5.45;1.42;;;;;;;-143.48;52.87;78127.19;5060542;28;20024;-79
2022/09/25 07:51:20;;;;;;;5.97;1.67;;;;;;;-143.48;52.12;78137.09;5062395;28;20573;-78
2022/09/25 07:53:45;;;;;;;6.57;1.45;;;;;;;-143.48;53.13;78196.59;5059865;28;20027;-78
2022/09/25 07:56:11;;;;;;;5.70;1.23;;;;;;;-143.48;54.89;78273.94;5078013;28;20512;-77
2022/09/25 07:58:37;;;;;;;4.15;1.23;;;;;;;-143.48;54.86;78234.28;5060068;28;20024;-77
2022/09/25 08:01:05;;;;;;;4.30;1.20;;;;;;;-143.48;50.19;78020.09;5079540;28;20024;-77
2022/09/25 08:03:31;;;;;;;5.82;1.45;;;;;;;-143.48;48.53;77885.25;5079634;28;20067;-77
2022/09/25 08:05:58;;;;;;;4.68;1.13;;;;;;;-143.48;41.96;77633.44;5064535;28;20016;-81
2022/09/25 08:08:25;;;;;;;4.90;1.25;;;;;;;-143.48;43.49;77764.31;5075504;28;20091;-79
2022/09/25 08:10:50;;;;;;;5.03;1.10;;;;;;;-143.48;44.11;77768.25;5097429;28;20080;-79
2022/09/25 08:13:19;;;;;;;4.93;1.40;;;;;;;-143.48;41.85;77613.59;5084795;28;20070;-79
2022/09/25 08:15:45;;;;;;;5.05;1.40;;;;;;;-143.48;43.52;77690.94;5068499;28;20016;-78
2022/09/25 08:18:10;;;;;;;5.22;1.40;;;;;;;-143.48;40.47;77552.13;5069987;28;20032;-78
2022/09/25 08:20:39;;;;;;;6.25;1.13;;;;;;;-143.48;41.00;77585.84;5071269;28;20008;-78
2022/09/25 08:23:06;;;;;;;5.85;1.38;;;;;;;-143.48;40.08;77528.34;5082710;28;20380;-78
2022/09/25 08:25:31;;;;;;;5.93;1.35;;;;;;;-143.48;39.52;77488.69;5064384;28;20031;-77
2022/09/25 08:27:56;;;;;;;7.88;1.40;;;;;;;-143.48;41.12;77587.81;5057419;28;20491;-78
2022/09/25 08:30:22;;;;;;;5.03;1.30;;;;;;;-143.48;40.23;77534.28;5075032;28;20028;-78
2022/09/25 08:32:47;;;;;;;5.43;1.27;;;;;;;-143.48;38.66;77399.47;5076818;28;20031;-79
2022/09/25 08:35:13;;;;;;;8.13;1.30;;;;;;;-143.48;38.14;77334.03;5074256;28;20060;-79
2022/09/25 08:37:41;;;;;;;7.35;1.10;;;;;;;-143.48;39.23;77399.47;5066213;28;20079;-79
2022/09/25 08:40:16;;;;;;;3.92;1.40;;;;;;;-143.48;36.74;77250.75;5062738;28;20024;-79
2022/09/25 08:42:44;;;;;;;6.38;1.70;;;;;;;-143.48;36.34;77250.75;5058100;28;20024;-78
2022/09/25 08:50:57;;;;;;;5.20;1.13;;;;;;;-143.48;37.81;77393.50;5082771;28;20062;-78
2022/09/25 08:56:14;;;;;;;7.90;1.20;;;;;;;-143.48;39.35;77569.97;5034010;28;20515;-42
2022/09/25 08:58:52;;;;;;;7.32;1.30;;;;;;;-143.48;43.06;77853.53;5017787;28;20040;-42
2022/09/25 09:01:35;;;;;;;9.65;1.20;;;;;;;-143.48;48.07;78051.84;5017626;28;20456;-41
2022/09/25 09:04:08;;;;;;;4.82;1.17;;;;;;;-143.48;50.04;78107.34;5035735;28;20021;-42
2022/09/25 09:06:36;;;;;;;;;;;;;;;-143.48;52.10;78206.50;5036067;28;20021;-41
2022/09/25 09:09:28;;;;;;;4.30;1.08;;;;;;;-143.48;42.29;77611.63;5017580;28;19913;-41
2022/09/25 09:12:07;;;;;;;3.72;0.90;;;;;;;-143.48;43.93;77800.00;5035217;28;20506;-40
2022/09/25 09:14:41;;;;;;;8.27;1.15;;;;;;;-143.48;51.45;78170.81;5017416;28;20067;-41
2022/09/25 09:17:16;;;;;;;2.90;0.80;;;;;;;-143.48;45.77;77821.81;5035413;28;20044;-42
2022/09/25 09:19:50;;;;;;;7.05;1.25;;;;;;;-143.48;39.59;77478.78;5035078;28;20021;-41
2022/09/25 09:22:25;;;;;;;4.57;1.30;;;;;;;-143.48;37.10;77330.06;5034563;28;20108;-41
2022/09/25 09:25:23;;;;;;;3.15;1.20;;;;;;;-143.48;38.95;77387.56;5035146;28;20021;-42
2022/09/25 09:28:05;;;;;;;6.00;1.33;;;;;;;-143.48;39.53;77615.59;5034492;28;20029;-42
2022/09/25 09:30:45;;;;;;;4.30;0.95;;;;;;;-143.48;39.79;77607.66;5034894;28;20473;-42
2022/09/25 09:33:22;;;;;;;4.90;0.80;;;;;;;-143.48;38.92;77573.94;5034970;28;20029;-42
2022/09/25 09:36:15;;;;;;;6.25;0.90;;;;;;;-143.48;38.87;77550.16;5035101;28;20472;-43
2022/09/25 09:38:55;;;;;;;4.57;0.70;;;;;;;-143.48;39.77;77627.47;5033030;28;20431;-42
2022/09/25 09:41:32;;;;;;;6.90;1.00;;;;;;;-143.48;43.93;77817.84;5033678;28;20097;-40
2022/09/25 09:44:32;;;;;;;4.18;0.90;;;;;;;-143.48;39.41;77811.88;5034860;28;20031;-41
2022/09/25 09:47:21;;;;;;;4.68;2.33;;;;;;;-143.48;38.65;77756.38;5034594;28;20075;-42
2022/09/25 09:50:00;;;;;;;2.42;0.55;;;;;;;-143.48;40.84;77800.00;4996768;28;20030;-42
2022/09/25 09:52:35;;;;;;;4.43;0.85;;;;;;;-143.48;39.86;77815.84;5015060;28;20101;-41
2022/09/25 09:55:05;;;;;;;5.97;1.10;;;;;;;-143.48;40.59;77881.28;5014774;28;20045;-42
2022/09/25 09:58:03;;;;;;;3.17;0.80;;;;;;;-143.48;41.38;77996.31;5014590;28;20057;-42
2022/09/25 10:00:29;;;;;;;5.20;0.70;;;;;;;-143.48;44.40;77972.50;5014664;28;20072;-42
2022/09/25 10:03:18;;;;;;;4.25;1.05;;;;;;;-143.48;41.63;77845.59;5014718;28;20025;-41
2022/09/25 10:06:00;;;;;;;4.30;0.90;;;;;;;-143.48;41.08;77835.69;5014995;28;20026;-43
2022/09/25 10:08:25;;;;;;;3.22;0.82;;;;;;;-143.48;42.62;77877.31;4997256;28;20029;-42
2022/09/25 10:10:55;;;;;;;4.78;0.98;;;;;;;-143.48;42.27;77875.34;5014226;28;20025;-42
2022/09/25 10:13:31;;;;;;;5.18;0.98;;;;;;;-143.48;42.04;77869.41;5014277;28;20072;-42
2022/09/25 10:16:00;;;;;;;5.85;1.25;;;;;;;-143.48;41.66;77903.09;5014509;28;20412;-42
2022/09/25 10:18:36;;;;;;;3.85;0.88;;;;;;;-143.48;41.27;77815.84;5014079;28;20034;-41
2022/09/25 10:21:17;;;;;;;3.53;0.98;;;;;;;-143.48;40.03;77788.09;5014496;28;20176;-42
2022/09/25 10:23:45;;;;;;;3.05;0.75;;;;;;;-143.48;39.78;77768.25;5014505;28;20543;-42
2022/09/25 10:26:31;;;;;;;7.72;1.00;;;;;;;-143.48;41.91;77817.84;5014724;28;20018;-41
2022/09/25 10:28:59;;;;;;;5.43;0.85;;;;;;;-143.48;38.71;77784.13;4996490;28;20029;-41
2022/09/25 10:31:29;;;;;;;3.22;0.88;;;;;;;-143.48;40.23;77792.06;5014152;28;20053;-42
2022/09/25 10:34:01;;;;;;;3.78;0.90;;;;;;;-143.48;39.45;77805.94;5014355;28;20038;-43
2022/09/25 10:36:32;;;;;;;3.17;0.80;;;;;;;-143.48;40.57;77800.00;5015311;28;20468;-43
2022/09/25 10:38:58;;;;;;;4.13;1.08;;;;;;;-143.48;38.95;77815.84;5014203;28;20065;-43
2022/09/25 10:41:25;;;;;;;5.10;0.90;;;;;;;-143.48;39.14;77905.09;5014002;28;20473;-43
2022/09/25 10:43:52;;;;;;;3.42;0.93;;;;;;;-143.48;39.31;77786.13;4996163;28;20116;-43
2022/09/25 10:50:09;;;;;;;6.53;1.08;;;;;;;-143.48;38.98;77754.38;5013859;28;20025;-43
2022/09/25 10:52:28;;;;;;;3.53;0.65;;;;;;;-143.48;41.05;77968.53;5014250;28;20088;-42
2022/09/25 10:55:24;;;;;;;5.63;0.90;;;;;;;-143.48;40.10;77807.94;5013726;28;20512;-42
2022/09/25 10:57:57;;;;;;;3.85;0.90;;;;;;;-143.48;38.62;77887.25;5014128;28;20073;-41
2022/09/25 11:00:25;;;;;;;3.58;0.75;;;;;;;-143.48;43.33;77883.28;5014085;28;20018;-42
2022/09/25 11:02:55;;;;;;;3.53;0.73;;;;;;;-143.48;41.11;77823.78;5013671;28;20028;-42
2022/09/25 11:05:27;;;;;;;2.28;0.70;;;;;;;-143.48;38.77;77801.97;5014356;28;20025;-42
2022/09/25 11:07:55;;;;;;;3.03;0.77;;;;;;;-143.48;40.81;77801.97;5013949;28;20030;-42
2022/09/25 11:10:24;;;;;;;3.53;0.80;;;;;;;-143.48;38.97;77742.50;5013568;28;20026;-42
2022/09/25 11:12:51;;;;;;;4.22;0.73;;;;;;;-143.48;41.90;77895.19;5013820;28;20527;-42
2022/09/25 11:15:19;;;;;;;4.03;0.80;;;;;;;-143.48;40.54;77780.16;5013805;28;20050;-41
2022/09/25 11:17:49;;;;;;;7.80;1.13;;;;;;;-143.48;37.53;77786.13;5013603;28;20034;-41
2022/09/25 11:20:17;;;;;;;4.13;0.90;;;;;;;-143.48;38.04;77782.16;5013892;28;20045;-40
2022/09/25 11:22:48;;;;;;;2.88;0.90;;;;;;;-143.48;38.65;77732.56;5013540;28;20076;-42
2022/09/25 11:25:22;;;;;;;3.88;0.70;;;;;;;-143.48;37.50;77698.88;5013396;28;20034;-42
2022/09/25 11:27:55;;;;;;;3.78;0.65;;;;;;;-143.48;38.14;77738.53;4995842;28;20033;-42
2022/09/25 11:30:25;;;;;;;3.53;0.63;;;;;;;-143.48;37.29;77684.97;5013824;28;20026;-42
2022/09/25 11:33:13;;;;;;;4.95;1.00;;;;;;;-143.48;35.72;77690.94;5012183;28;20026;-42
2022/09/25 11:35:47;;;;;;;4.13;0.70;;;;;;;-143.48;36.34;77774.22;5013796;28;20052;-41
2022/09/25 11:41:25;;;;;;;5.82;0.80;;;;;;;-143.48;36.07;77657.22;5013778;28;20117;-42
2022/09/25 11:43:57;;;;;;;2.78;0.65;;;;;;;-143.48;38.13;77609.63;5013131;28;20445;-42
2022/09/25 11:46:35;;;;;;;;;;;;;;;-143.48;40.38;77790.06;5013993;28;20045;-42
2022/09/25 11:49:14;;;;;;;2.50;0.80;;;;;;;-143.48;38.68;77784.13;5013698;28;20500;-42
2022/09/25 11:52:01;;;;;;;4.72;1.00;;;;;;;-143.48;39.17;77722.66;5013247;28;20108;-41
2022/09/25 11:54:45;;;;;;;1.98;0.57;;;;;;;-143.48;39.47;77784.13;5013426;28;20060;-40
2022/09/25 11:57:20;;;;;;;3.97;0.93;;;;;;;-143.48;39.60;77803.97;5013421;28;20109;-42